sensor_id;sensor_type;location;lat;lon;timestamp;P1;durP1;ratioP1;P2;durP2;ratioP2
68178;SDS011;54998;42.656;23.382;2022-08-04T00:02:45;6.38;;;4.85;;
68178;SDS011;54998;42.656;23.382;2022-08-04T00:08:00;5.40;;;4.75;;
68178;SDS011;54998;42.656;23.382;2022-08-04T00:10:39;6.15;;;4.85;;
68178;SDS011;54998;42.656;23.382;2022-08-04T00:13:12;5.43;;;4.75;;
68178;SDS011;54998;42.656;23.382;2022-08-04T00:18:07;6.80;;;4.63;;
68178;SDS011;54998;42.656;23.382;2022-08-04T00:20:36;6.85;;;5.05;;
68178;SDS011;54998;42.656;23.382;2022-08-04T00:23:03;9.32;;;5.13;;
68178;SDS011;54998;42.656;23.382;2022-08-04T00:25:30;7.40;;;4.95;;
68178;SDS011;54998;42.656;23.382;2022-08-04T00:27:56;5.95;;;4.85;;
68178;SDS011;54998;42.656;23.382;2022-08-04T00:30:23;5.75;;;4.88;;
68178;SDS011;54998;42.656;23.382;2022-08-04T00:32:49;6.35;;;4.30;;
68178;SDS011;54998;42.656;23.382;2022-08-04T00:35:15;4.43;;;3.50;;
68178;SDS011;54998;42.656;23.382;2022-08-04T00:37:43;5.72;;;4.72;;
68178;SDS011;54998;42.656;23.382;2022-08-04T00:40:30;6.50;;;5.05;;
68178;SDS011;54998;42.656;23.382;2022-08-04T00:43:12;5.40;;;4.35;;
68178;SDS011;54998;42.656;23.382;2022-08-04T00:48:55;6.55;;;4.88;;
68178;SDS011;54998;42.656;23.382;2022-08-04T00:58:09;6.22;;;5.05;;
68178;SDS011;54998;42.656;23.382;2022-08-04T01:01:16;6.88;;;5.07;;
68178;SDS011;54998;42.656;23.382;2022-08-04T01:03:40;6.38;;;5.20;;
68178;SDS011;54998;42.656;23.382;2022-08-04T01:06:34;6.45;;;4.82;;
68178;SDS011;54998;42.656;23.382;2022-08-04T01:17:24;5.80;;;5.20;;
68178;SDS011;54998;42.656;23.382;2022-08-04T01:20:08;7.70;;;5.35;;
68178;SDS011;54998;42.656;23.382;2022-08-04T01:30:37;5.53;;;4.40;;
68178;SDS011;54998;42.656;23.382;2022-08-04T01:35:42;7.97;;;5.35;;
68178;SDS011;54998;42.656;23.382;2022-08-04T01:38:34;7.10;;;5.78;;
68178;SDS011;54998;42.656;23.382;2022-08-04T01:41:02;6.35;;;5.72;;
68178;SDS011;54998;42.656;23.382;2022-08-04T01:43:29;7.28;;;5.00;;
68178;SDS011;54998;42.656;23.382;2022-08-04T01:45:58;8.85;;;5.25;;
68178;SDS011;54998;42.656;23.382;2022-08-04T01:48:26;5.28;;;4.35;;
68178;SDS011;54998;42.656;23.382;2022-08-04T01:50:53;5.18;;;4.45;;
68178;SDS011;54998;42.656;23.382;2022-08-04T01:53:34;7.47;;;4.95;;
68178;SDS011;54998;42.656;23.382;2022-08-04T01:56:02;5.38;;;4.70;;
68178;SDS011;54998;42.656;23.382;2022-08-04T01:58:30;6.20;;;4.70;;
68178;SDS011;54998;42.656;23.382;2022-08-04T02:03:26;6.50;;;5.10;;
68178;SDS011;54998;42.656;23.382;2022-08-04T02:06:03;5.88;;;5.03;;
68178;SDS011;54998;42.656;23.382;2022-08-04T02:11:22;7.75;;;5.07;;
68178;SDS011;54998;42.656;23.382;2022-08-04T02:16:59;7.03;;;4.85;;
68178;SDS011;54998;42.656;23.382;2022-08-04T02:19:29;5.72;;;4.70;;
68178;SDS011;54998;42.656;23.382;2022-08-04T02:22:02;6.47;;;4.85;;
68178;SDS011;54998;42.656;23.382;2022-08-04T02:24:31;6.15;;;4.93;;
68178;SDS011;54998;42.656;23.382;2022-08-04T02:26:57;7.50;;;4.80;;
68178;SDS011;54998;42.656;23.382;2022-08-04T02:29:33;5.32;;;4.72;;
68178;SDS011;54998;42.656;23.382;2022-08-04T02:32:14;5.93;;;4.50;;
68178;SDS011;54998;42.656;23.382;2022-08-04T02:34:52;7.97;;;5.57;;
68178;SDS011;54998;42.656;23.382;2022-08-04T02:39:53;5.85;;;4.90;;
68178;SDS011;54998;42.656;23.382;2022-08-04T02:42:21;6.13;;;4.72;;
68178;SDS011;54998;42.656;23.382;2022-08-04T02:44:50;6.03;;;4.78;;
68178;SDS011;54998;42.656;23.382;2022-08-04T02:47:16;7.53;;;5.20;;
68178;SDS011;54998;42.656;23.382;2022-08-04T02:49:45;6.82;;;5.10;;
68178;SDS011;54998;42.656;23.382;2022-08-04T02:52:14;5.65;;;5.03;;
68178;SDS011;54998;42.656;23.382;2022-08-04T02:54:42;6.47;;;5.15;;
68178;SDS011;54998;42.656;23.382;2022-08-04T02:57:11;6.32;;;5.00;;
68178;SDS011;54998;42.656;23.382;2022-08-04T03:02:06;6.18;;;4.30;;
68178;SDS011;54998;42.656;23.382;2022-08-04T03:12:46;6.20;;;5.10;;
68178;SDS011;54998;42.656;23.382;2022-08-04T03:21:09;7.82;;;5.93;;
68178;SDS011;54998;42.656;23.382;2022-08-04T03:23:53;10.27;;;6.47;;
68178;SDS011;54998;42.656;23.382;2022-08-04T03:42:57;8.13;;;4.05;;
68178;SDS011;54998;42.656;23.382;2022-08-04T04:16:57;6.75;;;5.40;;
68178;SDS011;54998;42.656;23.382;2022-08-04T04:21:57;9.50;;;5.90;;
68178;SDS011;54998;42.656;23.382;2022-08-04T04:30:10;7.90;;;5.13;;
68178;SDS011;54998;42.656;23.382;2022-08-04T04:44:45;6.43;;;4.80;;
68178;SDS011;54998;42.656;23.382;2022-08-04T04:47:04;6.03;;;5.07;;
68178;SDS011;54998;42.656;23.382;2022-08-04T04:52:46;9.15;;;5.40;;
68178;SDS011;54998;42.656;23.382;2022-08-04T04:57:52;12.80;;;5.75;;
68178;SDS011;54998;42.656;23.382;2022-08-04T05:06:09;9.50;;;5.85;;
68178;SDS011;54998;42.656;23.382;2022-08-04T05:17:19;6.65;;;5.20;;
68178;SDS011;54998;42.656;23.382;2022-08-04T05:25:07;7.25;;;5.88;;
68178;SDS011;54998;42.656;23.382;2022-08-04T05:27:50;11.45;;;6.07;;
68178;SDS011;54998;42.656;23.382;2022-08-04T05:30:26;9.98;;;5.80;;
68178;SDS011;54998;42.656;23.382;2022-08-04T05:32:56;9.90;;;6.65;;
68178;SDS011;54998;42.656;23.382;2022-08-04T05:35:35;8.10;;;6.32;;
68178;SDS011;54998;42.656;23.382;2022-08-04T05:38:05;9.70;;;5.57;;
68178;SDS011;54998;42.656;23.382;2022-08-04T05:40:34;7.80;;;6.18;;
68178;SDS011;54998;42.656;23.382;2022-08-04T05:43:02;7.93;;;5.63;;
68178;SDS011;54998;42.656;23.382;2022-08-04T05:45:28;7.65;;;5.35;;
68178;SDS011;54998;42.656;23.382;2022-08-04T05:47:54;5.97;;;5.03;;
68178;SDS011;54998;42.656;23.382;2022-08-04T05:50:20;5.30;;;4.80;;
68178;SDS011;54998;42.656;23.382;2022-08-04T05:55:13;5.63;;;5.13;;
68178;SDS011;54998;42.656;23.382;2022-08-04T05:57:40;5.22;;;4.00;;
68178;SDS011;54998;42.656;23.382;2022-08-04T06:02:36;7.72;;;4.70;;
68178;SDS011;54998;42.656;23.382;2022-08-04T06:05:03;6.60;;;5.35;;
68178;SDS011;54998;42.656;23.382;2022-08-04T06:07:31;7.03;;;5.50;;
68178;SDS011;54998;42.656;23.382;2022-08-04T06:12:24;10.95;;;4.78;;
68178;SDS011;54998;42.656;23.382;2022-08-04T06:15:06;6.00;;;5.50;;
68178;SDS011;54998;42.656;23.382;2022-08-04T06:17:37;6.35;;;5.57;;
68178;SDS011;54998;42.656;23.382;2022-08-04T06:20:04;7.20;;;5.40;;
68178;SDS011;54998;42.656;23.382;2022-08-04T06:22:33;7.30;;;6.15;;
68178;SDS011;54998;42.656;23.382;2022-08-04T06:25:03;5.93;;;5.43;;
68178;SDS011;54998;42.656;23.382;2022-08-04T06:27:30;6.75;;;5.80;;
68178;SDS011;54998;42.656;23.382;2022-08-04T06:29:57;8.15;;;6.20;;
68178;SDS011;54998;42.656;23.382;2022-08-04T06:32:26;8.07;;;5.97;;
68178;SDS011;54998;42.656;23.382;2022-08-04T06:35:01;6.90;;;6.18;;
68178;SDS011;54998;42.656;23.382;2022-08-04T06:37:28;11.82;;;6.95;;
68178;SDS011;54998;42.656;23.382;2022-08-04T06:39:55;10.15;;;7.03;;
68178;SDS011;54998;42.656;23.382;2022-08-04T06:42:21;11.05;;;7.85;;
68178;SDS011;54998;42.656;23.382;2022-08-04T06:44:56;8.68;;;6.78;;
68178;SDS011;54998;42.656;23.382;2022-08-04T06:47:23;8.27;;;7.13;;
68178;SDS011;54998;42.656;23.382;2022-08-04T06:49:51;8.23;;;7.13;;
68178;SDS011;54998;42.656;23.382;2022-08-04T06:52:18;14.10;;;7.38;;
68178;SDS011;54998;42.656;23.382;2022-08-04T06:54:49;13.60;;;7.70;;
68178;SDS011;54998;42.656;23.382;2022-08-04T06:57:19;10.65;;;7.38;;
68178;SDS011;54998;42.656;23.382;2022-08-04T07:00:00;9.05;;;7.35;;
68178;SDS011;54998;42.656;23.382;2022-08-04T07:02:30;9.00;;;8.10;;
68178;SDS011;54998;42.656;23.382;2022-08-04T07:04:58;11.23;;;7.75;;
68178;SDS011;54998;42.656;23.382;2022-08-04T07:09:50;12.15;;;7.88;;
68178;SDS011;54998;42.656;23.382;2022-08-04T07:14:44;10.00;;;8.15;;
68178;SDS011;54998;42.656;23.382;2022-08-04T07:17:11;13.05;;;8.07;;
68178;SDS011;54998;42.656;23.382;2022-08-04T07:19:40;10.68;;;7.28;;
68178;SDS011;54998;42.656;23.382;2022-08-04T07:24:33;9.13;;;8.20;;
68178;SDS011;54998;42.656;23.382;2022-08-04T07:27:00;13.88;;;8.27;;
68178;SDS011;54998;42.656;23.382;2022-08-04T07:29:27;14.60;;;8.70;;
68178;SDS011;54998;42.656;23.382;2022-08-04T07:31:53;10.23;;;9.18;;
68178;SDS011;54998;42.656;23.382;2022-08-04T07:34:20;10.40;;;8.63;;
68178;SDS011;54998;42.656;23.382;2022-08-04T07:36:51;9.45;;;8.55;;
68178;SDS011;54998;42.656;23.382;2022-08-04T07:39:19;11.65;;;9.65;;
68178;SDS011;54998;42.656;23.382;2022-08-04T07:41:46;11.88;;;8.25;;
68178;SDS011;54998;42.656;23.382;2022-08-04T07:44:13;10.68;;;9.18;;
68178;SDS011;54998;42.656;23.382;2022-08-04T07:46:40;12.60;;;9.10;;
68178;SDS011;54998;42.656;23.382;2022-08-04T07:49:09;11.45;;;9.48;;
68178;SDS011;54998;42.656;23.382;2022-08-04T07:51:36;12.02;;;9.02;;
68178;SDS011;54998;42.656;23.382;2022-08-04T07:54:02;11.02;;;9.68;;
68178;SDS011;54998;42.656;23.382;2022-08-04T07:56:30;10.88;;;9.45;;
68178;SDS011;54998;42.656;23.382;2022-08-04T07:58:56;11.60;;;9.60;;
68178;SDS011;54998;42.656;23.382;2022-08-04T08:03:48;12.20;;;10.15;;
68178;SDS011;54998;42.656;23.382;2022-08-04T08:06:16;11.55;;;8.82;;
68178;SDS011;54998;42.656;23.382;2022-08-04T08:08:42;13.27;;;10.07;;
68178;SDS011;54998;42.656;23.382;2022-08-04T08:11:07;11.52;;;9.20;;
68178;SDS011;54998;42.656;23.382;2022-08-04T08:13:33;10.63;;;9.32;;
68178;SDS011;54998;42.656;23.382;2022-08-04T08:16:00;11.20;;;8.52;;
68178;SDS011;54998;42.656;23.382;2022-08-04T08:18:27;10.82;;;8.70;;
68178;SDS011;54998;42.656;23.382;2022-08-04T08:20:53;11.63;;;8.30;;
68178;SDS011;54998;42.656;23.382;2022-08-04T08:25:45;12.30;;;8.43;;
68178;SDS011;54998;42.656;23.382;2022-08-04T08:28:10;9.60;;;8.27;;
68178;SDS011;54998;42.656;23.382;2022-08-04T08:30:36;10.52;;;8.98;;
68178;SDS011;54998;42.656;23.382;2022-08-04T08:33:05;9.20;;;7.88;;
68178;SDS011;54998;42.656;23.382;2022-08-04T08:35:35;10.90;;;8.73;;
68178;SDS011;54998;42.656;23.382;2022-08-04T08:38:26;7.95;;;7.13;;
68178;SDS011;54998;42.656;23.382;2022-08-04T09:06:01;9.30;;;7.60;;
68178;SDS011;54998;42.656;23.382;2022-08-04T09:11:21;8.27;;;7.07;;
68178;SDS011;54998;42.656;23.382;2022-08-04T09:16:21;8.10;;;5.45;;
68178;SDS011;54998;42.656;23.382;2022-08-04T09:18:53;9.50;;;7.22;;
68178;SDS011;54998;42.656;23.382;2022-08-04T09:24:15;9.43;;;7.43;;
68178;SDS011;54998;42.656;23.382;2022-08-04T09:29:27;6.97;;;6.18;;
68178;SDS011;54998;42.656;23.382;2022-08-04T09:37:46;8.90;;;7.00;;
68178;SDS011;54998;42.656;23.382;2022-08-04T09:40:24;8.30;;;5.88;;
68178;SDS011;54998;42.656;23.382;2022-08-04T09:45:52;7.53;;;6.47;;
68178;SDS011;54998;42.656;23.382;2022-08-04T09:51:05;7.03;;;6.32;;
68178;SDS011;54998;42.656;23.382;2022-08-04T09:54:11;7.63;;;6.43;;
68178;SDS011;54998;42.656;23.382;2022-08-04T10:00:07;6.15;;;5.63;;
68178;SDS011;54998;42.656;23.382;2022-08-04T10:02:38;7.90;;;6.57;;
68178;SDS011;54998;42.656;23.382;2022-08-04T10:05:13;7.28;;;6.30;;
68178;SDS011;54998;42.656;23.382;2022-08-04T10:07:56;7.20;;;6.50;;
68178;SDS011;54998;42.656;23.382;2022-08-04T10:19:08;9.30;;;6.40;;
68178;SDS011;54998;42.656;23.382;2022-08-04T10:34:40;6.43;;;5.80;;
68178;SDS011;54998;42.656;23.382;2022-08-04T10:37:22;8.70;;;7.05;;
68178;SDS011;54998;42.656;23.382;2022-08-04T10:39:53;8.45;;;7.05;;
68178;SDS011;54998;42.656;23.382;2022-08-04T10:43:04;9.10;;;5.60;;
68178;SDS011;54998;42.656;23.382;2022-08-04T10:48:28;6.82;;;5.10;;
68178;SDS011;54998;42.656;23.382;2022-08-04T10:51:01;9.63;;;5.60;;
68178;SDS011;54998;42.656;23.382;2022-08-04T10:53:35;7.57;;;4.40;;
68178;SDS011;54998;42.656;23.382;2022-08-04T10:56:14;5.60;;;4.18;;
68178;SDS011;54998;42.656;23.382;2022-08-04T10:58:52;6.10;;;5.50;;
68178;SDS011;54998;42.656;23.382;2022-08-04T11:01:32;5.38;;;4.88;;
68178;SDS011;54998;42.656;23.382;2022-08-04T11:04:07;7.20;;;5.75;;
68178;SDS011;54998;42.656;23.382;2022-08-04T11:06:40;9.50;;;6.68;;
68178;SDS011;54998;42.656;23.382;2022-08-04T11:09:07;7.70;;;6.75;;
68178;SDS011;54998;42.656;23.382;2022-08-04T11:17:20;5.55;;;4.95;;
68178;SDS011;54998;42.656;23.382;2022-08-04T11:22:24;6.03;;;5.20;;
68178;SDS011;54998;42.656;23.382;2022-08-04T11:24:52;4.45;;;4.05;;
68178;SDS011;54998;42.656;23.382;2022-08-04T11:27:28;5.85;;;5.25;;
68178;SDS011;54998;42.656;23.382;2022-08-04T11:30:07;5.50;;;4.80;;
68178;SDS011;54998;42.656;23.382;2022-08-04T11:32:40;4.68;;;4.28;;
68178;SDS011;54998;42.656;23.382;2022-08-04T11:35:08;3.47;;;3.17;;
68178;SDS011;54998;42.656;23.382;2022-08-04T11:37:42;4.80;;;4.40;;
68178;SDS011;54998;42.656;23.382;2022-08-04T11:40:23;4.57;;;4.18;;
68178;SDS011;54998;42.656;23.382;2022-08-04T11:43:00;4.82;;;4.20;;
68178;SDS011;54998;42.656;23.382;2022-08-04T11:45:37;5.07;;;4.57;;
68178;SDS011;54998;42.656;23.382;2022-08-04T11:48:16;3.20;;;2.90;;
68178;SDS011;54998;42.656;23.382;2022-08-04T11:50:56;5.00;;;4.05;;
68178;SDS011;54998;42.656;23.382;2022-08-04T11:53:26;4.88;;;4.07;;
68178;SDS011;54998;42.656;23.382;2022-08-04T11:55:57;4.63;;;4.10;;
68178;SDS011;54998;42.656;23.382;2022-08-04T11:58:26;5.05;;;4.25;;
68178;SDS011;54998;42.656;23.382;2022-08-04T12:01:14;4.82;;;4.30;;
68178;SDS011;54998;42.656;23.382;2022-08-04T12:07:13;6.32;;;4.30;;
68178;SDS011;54998;42.656;23.382;2022-08-04T12:09:48;4.18;;;3.88;;
68178;SDS011;54998;42.656;23.382;2022-08-04T12:21:04;5.47;;;3.92;;
68178;SDS011;54998;42.656;23.382;2022-08-04T12:26:17;6.40;;;4.68;;
68178;SDS011;54998;42.656;23.382;2022-08-04T12:28:47;5.55;;;4.05;;
68178;SDS011;54998;42.656;23.382;2022-08-04T12:31:19;4.50;;;4.10;;
68178;SDS011;54998;42.656;23.382;2022-08-04T12:39:18;5.82;;;5.32;;
68178;SDS011;54998;42.656;23.382;2022-08-04T12:42:00;4.88;;;4.47;;
68178;SDS011;54998;42.656;23.382;2022-08-04T12:44:32;5.78;;;4.88;;
68178;SDS011;54998;42.656;23.382;2022-08-04T12:47:00;5.30;;;4.75;;
68178;SDS011;54998;42.656;23.382;2022-08-04T12:49:29;4.65;;;4.15;;
68178;SDS011;54998;42.656;23.382;2022-08-04T12:51:58;4.72;;;4.32;;
68178;SDS011;54998;42.656;23.382;2022-08-04T12:54:25;4.82;;;4.18;;
68178;SDS011;54998;42.656;23.382;2022-08-04T12:56:52;5.20;;;4.68;;
68178;SDS011;54998;42.656;23.382;2022-08-04T12:59:21;4.40;;;3.75;;
68178;SDS011;54998;42.656;23.382;2022-08-04T13:04:15;6.80;;;4.03;;
68178;SDS011;54998;42.656;23.382;2022-08-04T13:06:43;5.10;;;4.57;;
68178;SDS011;54998;42.656;23.382;2022-08-04T13:11:46;4.80;;;4.30;;
68178;SDS011;54998;42.656;23.382;2022-08-04T13:14:17;5.03;;;4.30;;
68178;SDS011;54998;42.656;23.382;2022-08-04T13:16:45;4.93;;;3.78;;
68178;SDS011;54998;42.656;23.382;2022-08-04T13:21:40;4.10;;;3.38;;
68178;SDS011;54998;42.656;23.382;2022-08-04T13:24:17;6.18;;;4.05;;
68178;SDS011;54998;42.656;23.382;2022-08-04T13:26:57;4.63;;;3.53;;
68178;SDS011;54998;42.656;23.382;2022-08-04T13:29:31;4.22;;;3.38;;
68178;SDS011;54998;42.656;23.382;2022-08-04T13:34:33;5.22;;;4.72;;
68178;SDS011;54998;42.656;23.382;2022-08-04T13:37:00;4.20;;;3.80;;
68178;SDS011;54998;42.656;23.382;2022-08-04T13:39:26;6.70;;;3.83;;
68178;SDS011;54998;42.656;23.382;2022-08-04T13:41:54;5.15;;;4.13;;
68178;SDS011;54998;42.656;23.382;2022-08-04T13:44:24;6.03;;;3.90;;
68178;SDS011;54998;42.656;23.382;2022-08-04T13:46:56;4.13;;;3.72;;
68178;SDS011;54998;42.656;23.382;2022-08-04T13:49:25;4.57;;;4.18;;
68178;SDS011;54998;42.656;23.382;2022-08-04T13:54:18;4.65;;;3.92;;
68178;SDS011;54998;42.656;23.382;2022-08-04T13:56:45;4.50;;;3.38;;
68178;SDS011;54998;42.656;23.382;2022-08-04T13:59:14;5.00;;;4.25;;
68178;SDS011;54998;42.656;23.382;2022-08-04T14:01:44;7.68;;;4.13;;
68178;SDS011;54998;42.656;23.382;2022-08-04T14:04:22;5.72;;;5.20;;
68178;SDS011;54998;42.656;23.382;2022-08-04T14:09:26;4.68;;;4.03;;
68178;SDS011;54998;42.656;23.382;2022-08-04T14:11:53;4.30;;;3.67;;
68178;SDS011;54998;42.656;23.382;2022-08-04T14:14:32;4.78;;;3.60;;
68178;SDS011;54998;42.656;23.382;2022-08-04T14:17:08;5.55;;;4.40;;
68178;SDS011;54998;42.656;23.382;2022-08-04T14:22:26;4.55;;;4.15;;
68178;SDS011;54998;42.656;23.382;2022-08-04T14:24:59;5.47;;;3.35;;
68178;SDS011;54998;42.656;23.382;2022-08-04T14:27:50;4.32;;;3.97;;
68178;SDS011;54998;42.656;23.382;2022-08-04T14:30:30;5.25;;;4.30;;
68178;SDS011;54998;42.656;23.382;2022-08-04T14:33:06;5.78;;;4.68;;
68178;SDS011;54998;42.656;23.382;2022-08-04T14:35:34;5.25;;;3.42;;
68178;SDS011;54998;42.656;23.382;2022-08-04T14:38:02;4.65;;;3.75;;
68178;SDS011;54998;42.656;23.382;2022-08-04T14:40:34;4.82;;;4.30;;
68178;SDS011;54998;42.656;23.382;2022-08-04T14:43:02;5.80;;;4.45;;
68178;SDS011;54998;42.656;23.382;2022-08-04T14:45:29;7.72;;;4.53;;
68178;SDS011;54998;42.656;23.382;2022-08-04T14:48:00;5.07;;;4.57;;
68178;SDS011;54998;42.656;23.382;2022-08-04T14:50:35;5.43;;;3.80;;
68178;SDS011;54998;42.656;23.382;2022-08-04T14:53:14;6.03;;;5.13;;
68178;SDS011;54998;42.656;23.382;2022-08-04T14:55:43;5.85;;;4.20;;
68178;SDS011;54998;42.656;23.382;2022-08-04T14:58:16;5.25;;;3.70;;
68178;SDS011;54998;42.656;23.382;2022-08-04T15:00:46;5.38;;;3.72;;
68178;SDS011;54998;42.656;23.382;2022-08-04T15:03:13;6.18;;;3.85;;
68178;SDS011;54998;42.656;23.382;2022-08-04T15:05:40;5.80;;;3.60;;
68178;SDS011;54998;42.656;23.382;2022-08-04T15:08:06;5.25;;;4.20;;
68178;SDS011;54998;42.656;23.382;2022-08-04T15:10:33;6.40;;;5.25;;
68178;SDS011;54998;42.656;23.382;2022-08-04T15:13:01;6.25;;;4.60;;
68178;SDS011;54998;42.656;23.382;2022-08-04T15:15:27;4.97;;;4.57;;
68178;SDS011;54998;42.656;23.382;2022-08-04T15:17:53;3.78;;;3.40;;
68178;SDS011;54998;42.656;23.382;2022-08-04T15:20:19;5.47;;;4.97;;
68178;SDS011;54998;42.656;23.382;2022-08-04T15:22:46;6.78;;;4.60;;
68178;SDS011;54998;42.656;23.382;2022-08-04T15:25:12;5.45;;;4.90;;
68178;SDS011;54998;42.656;23.382;2022-08-04T15:27:39;7.40;;;4.88;;
68178;SDS011;54998;42.656;23.382;2022-08-04T15:30:08;5.63;;;4.53;;
68178;SDS011;54998;42.656;23.382;2022-08-04T15:32:42;4.57;;;3.55;;
68178;SDS011;54998;42.656;23.382;2022-08-04T15:35:24;7.75;;;4.75;;
68178;SDS011;54998;42.656;23.382;2022-08-04T15:45:57;7.85;;;6.72;;
68178;SDS011;54998;42.656;23.382;2022-08-04T15:48:25;7.65;;;5.43;;
68178;SDS011;54998;42.656;23.382;2022-08-04T15:53:19;6.57;;;5.30;;
68178;SDS011;54998;42.656;23.382;2022-08-04T15:55:45;6.80;;;4.40;;
68178;SDS011;54998;42.656;23.382;2022-08-04T15:58:11;17.10;;;14.90;;
68178;SDS011;54998;42.656;23.382;2022-08-04T16:22:39;6.60;;;5.40;;
68178;SDS011;54998;42.656;23.382;2022-08-04T16:25:07;5.82;;;5.28;;
68178;SDS011;54998;42.656;23.382;2022-08-04T16:27:37;6.85;;;5.57;;
68178;SDS011;54998;42.656;23.382;2022-08-04T16:30:05;5.80;;;4.20;;
68178;SDS011;54998;42.656;23.382;2022-08-04T16:32:39;12.38;;;10.25;;
68178;SDS011;54998;42.656;23.382;2022-08-04T16:35:25;6.18;;;4.35;;
68178;SDS011;54998;42.656;23.382;2022-08-04T16:38:09;12.27;;;10.18;;
68178;SDS011;54998;42.656;23.382;2022-08-04T16:43:16;6.35;;;5.28;;
68178;SDS011;54998;42.656;23.382;2022-08-04T16:48:16;7.40;;;5.07;;
68178;SDS011;54998;42.656;23.382;2022-08-04T16:50:44;7.03;;;5.40;;
68178;SDS011;54998;42.656;23.382;2022-08-04T16:53:13;5.82;;;5.22;;
68178;SDS011;54998;42.656;23.382;2022-08-04T16:55:39;5.68;;;3.97;;
68178;SDS011;54998;42.656;23.382;2022-08-04T16:58:10;6.38;;;4.25;;
68178;SDS011;54998;42.656;23.382;2022-08-04T17:00:37;6.22;;;5.63;;
68178;SDS011;54998;42.656;23.382;2022-08-04T17:03:06;4.88;;;3.83;;
68178;SDS011;54998;42.656;23.382;2022-08-04T17:05:34;5.18;;;3.97;;
68178;SDS011;54998;42.656;23.382;2022-08-04T17:08:01;5.95;;;4.78;;
68178;SDS011;54998;42.656;23.382;2022-08-04T17:10:34;5.45;;;4.85;;
68178;SDS011;54998;42.656;23.382;2022-08-04T17:15:54;5.65;;;4.90;;
68178;SDS011;54998;42.656;23.382;2022-08-04T17:18:25;6.85;;;5.40;;
68178;SDS011;54998;42.656;23.382;2022-08-04T17:20:53;6.78;;;4.72;;
68178;SDS011;54998;42.656;23.382;2022-08-04T17:26:18;5.68;;;5.03;;
68178;SDS011;54998;42.656;23.382;2022-08-04T17:28:48;6.32;;;4.70;;
68178;SDS011;54998;42.656;23.382;2022-08-04T17:31:16;6.53;;;4.07;;
68178;SDS011;54998;42.656;23.382;2022-08-04T17:33:48;5.57;;;5.07;;
68178;SDS011;54998;42.656;23.382;2022-08-04T17:36:16;5.97;;;5.13;;
68178;SDS011;54998;42.656;23.382;2022-08-04T17:41:13;5.72;;;4.80;;
68178;SDS011;54998;42.656;23.382;2022-08-04T17:51:33;7.55;;;5.25;;
68178;SDS011;54998;42.656;23.382;2022-08-04T17:54:07;7.15;;;4.45;;
68178;SDS011;54998;42.656;23.382;2022-08-04T17:59:21;5.65;;;4.40;;
68178;SDS011;54998;42.656;23.382;2022-08-04T18:01:59;6.47;;;5.00;;
68178;SDS011;54998;42.656;23.382;2022-08-04T18:07:05;12.60;;;7.43;;
68178;SDS011;54998;42.656;23.382;2022-08-04T18:12:03;17.13;;;9.73;;
68178;SDS011;54998;42.656;23.382;2022-08-04T18:17:04;7.60;;;4.90;;
68178;SDS011;54998;42.656;23.382;2022-08-04T18:19:33;6.78;;;4.13;;
68178;SDS011;54998;42.656;23.382;2022-08-04T18:24:35;7.38;;;4.50;;
68178;SDS011;54998;42.656;23.382;2022-08-04T18:27:02;7.25;;;5.63;;
68178;SDS011;54998;42.656;23.382;2022-08-04T18:29:30;7.10;;;5.72;;
68178;SDS011;54998;42.656;23.382;2022-08-04T18:32:00;9.07;;;6.68;;
68178;SDS011;54998;42.656;23.382;2022-08-04T18:34:26;10.25;;;7.45;;
68178;SDS011;54998;42.656;23.382;2022-08-04T18:36:51;7.55;;;6.32;;
68178;SDS011;54998;42.656;23.382;2022-08-04T18:39:17;9.55;;;7.10;;
68178;SDS011;54998;42.656;23.382;2022-08-04T18:41:43;14.13;;;6.93;;
68178;SDS011;54998;42.656;23.382;2022-08-04T18:44:09;9.13;;;7.70;;
68178;SDS011;54998;42.656;23.382;2022-08-04T18:46:38;13.10;;;9.35;;
68178;SDS011;54998;42.656;23.382;2022-08-04T18:51:41;11.73;;;7.53;;
68178;SDS011;54998;42.656;23.382;2022-08-04T18:54:06;12.07;;;8.00;;
68178;SDS011;54998;42.656;23.382;2022-08-04T18:56:32;17.55;;;9.85;;
68178;SDS011;54998;42.656;23.382;2022-08-04T18:59:01;10.18;;;5.28;;
68178;SDS011;54998;42.656;23.382;2022-08-04T19:01:28;8.18;;;6.55;;
68178;SDS011;54998;42.656;23.382;2022-08-04T19:03:54;11.73;;;5.70;;
68178;SDS011;54998;42.656;23.382;2022-08-04T19:06:19;13.85;;;10.80;;
68178;SDS011;54998;42.656;23.382;2022-08-04T19:08:45;8.38;;;5.40;;
68178;SDS011;54998;42.656;23.382;2022-08-04T19:11:11;13.20;;;6.40;;
68178;SDS011;54998;42.656;23.382;2022-08-04T19:13:37;9.90;;;6.40;;
68178;SDS011;54998;42.656;23.382;2022-08-04T19:16:03;9.80;;;6.38;;
68178;SDS011;54998;42.656;23.382;2022-08-04T19:18:29;10.75;;;7.53;;
68178;SDS011;54998;42.656;23.382;2022-08-04T19:20:56;9.38;;;5.68;;
68178;SDS011;54998;42.656;23.382;2022-08-04T19:25:47;9.75;;;7.57;;
68178;SDS011;54998;42.656;23.382;2022-08-04T19:28:14;10.90;;;7.22;;
68178;SDS011;54998;42.656;23.382;2022-08-04T19:30:40;7.97;;;6.72;;
68178;SDS011;54998;42.656;23.382;2022-08-04T19:33:05;8.85;;;7.57;;
68178;SDS011;54998;42.656;23.382;2022-08-04T19:35:31;8.60;;;6.13;;
68178;SDS011;54998;42.656;23.382;2022-08-04T19:37:56;8.75;;;6.70;;
68178;SDS011;54998;42.656;23.382;2022-08-04T19:40:22;8.50;;;5.88;;
68178;SDS011;54998;42.656;23.382;2022-08-04T19:42:49;7.13;;;6.43;;
68178;SDS011;54998;42.656;23.382;2022-08-04T19:47:40;7.55;;;6.07;;
68178;SDS011;54998;42.656;23.382;2022-08-04T19:50:06;7.43;;;5.05;;
68178;SDS011;54998;42.656;23.382;2022-08-04T19:52:31;8.43;;;5.10;;
68178;SDS011;54998;42.656;23.382;2022-08-04T19:54:57;7.80;;;5.70;;
68178;SDS011;54998;42.656;23.382;2022-08-04T19:57:22;6.53;;;5.55;;
68178;SDS011;54998;42.656;23.382;2022-08-04T19:59:48;5.90;;;4.80;;
68178;SDS011;54998;42.656;23.382;2022-08-04T20:02:13;6.45;;;5.18;;
68178;SDS011;54998;42.656;23.382;2022-08-04T20:04:39;9.27;;;5.72;;
68178;SDS011;54998;42.656;23.382;2022-08-04T20:07:04;6.65;;;5.40;;
68178;SDS011;54998;42.656;23.382;2022-08-04T20:09:32;8.10;;;5.80;;
68178;SDS011;54998;42.656;23.382;2022-08-04T20:11:58;8.90;;;6.00;;
68178;SDS011;54998;42.656;23.382;2022-08-04T20:14:24;7.43;;;5.75;;
68178;SDS011;54998;42.656;23.382;2022-08-04T20:16:53;8.55;;;5.88;;
68178;SDS011;54998;42.656;23.382;2022-08-04T20:19:18;11.85;;;6.82;;
68178;SDS011;54998;42.656;23.382;2022-08-04T20:21:43;7.68;;;5.70;;
68178;SDS011;54998;42.656;23.382;2022-08-04T20:24:09;5.68;;;4.72;;
68178;SDS011;54998;42.656;23.382;2022-08-04T20:26:35;6.95;;;5.47;;
68178;SDS011;54998;42.656;23.382;2022-08-04T20:29:00;8.52;;;5.65;;
68178;SDS011;54998;42.656;23.382;2022-08-04T20:31:26;6.55;;;5.93;;
68178;SDS011;54998;42.656;23.382;2022-08-04T20:33:51;9.15;;;6.35;;
68178;SDS011;54998;42.656;23.382;2022-08-04T20:36:17;8.23;;;6.18;;
68178;SDS011;54998;42.656;23.382;2022-08-04T20:38:42;8.85;;;6.07;;
68178;SDS011;54998;42.656;23.382;2022-08-04T20:41:07;8.75;;;5.75;;
68178;SDS011;54998;42.656;23.382;2022-08-04T20:43:33;8.35;;;5.88;;
68178;SDS011;54998;42.656;23.382;2022-08-04T20:45:59;6.68;;;5.63;;
68178;SDS011;54998;42.656;23.382;2022-08-04T20:48:27;6.88;;;4.80;;
68178;SDS011;54998;42.656;23.382;2022-08-04T20:50:54;6.85;;;5.82;;
68178;SDS011;54998;42.656;23.382;2022-08-04T20:53:20;6.82;;;4.85;;
68178;SDS011;54998;42.656;23.382;2022-08-04T20:55:45;7.47;;;5.35;;
68178;SDS011;54998;42.656;23.382;2022-08-04T20:58:11;7.25;;;5.13;;
68178;SDS011;54998;42.656;23.382;2022-08-04T21:00:36;5.50;;;4.68;;
68178;SDS011;54998;42.656;23.382;2022-08-04T21:03:02;6.65;;;5.50;;